Terminal Aerodrome Forecast
Issued by NWS

Home | Current Version | Previous Version | Text Only | Print | Product List | Glossary On
Versions: 1 2 3 4 5 6 7 8 9 10 11 12 13 14 15 16 17 18 19 20 21 22 23 24 25 26 27
000
FTUS45 KBOI 272347 AAA
TAFJER
TAF AMD
KJER 272347Z 2800/2824 26009KT P6SM VCTS SCT080CB BKN110
      TEMPO 2800/2802 VRB15G30KT -TSRA BKN070CB
     FM280500 21006KT P6SM BKN100
     FM281500 25009KT P6SM FEW100=

USA.gov is the U.S. government's official web portal to all federal, state and local government web resources and services.